sensor_id;sensor_type;location;lat;lon;timestamp;P1;durP1;ratioP1;P2;durP2;ratioP2
5878;SDS011;2965;42.640;23.370;2023-03-01T05:03:11;4.27;;;4.07;;
5878;SDS011;2965;42.640;23.370;2023-03-01T05:05:38;5.40;;;4.90;;
5878;SDS011;2965;42.640;23.370;2023-03-01T05:08:07;5.17;;;4.77;;
5878;SDS011;2965;42.640;23.370;2023-03-01T05:10:34;5.47;;;4.70;;
5878;SDS011;2965;42.640;23.370;2023-03-01T05:13:01;4.63;;;4.37;;
5878;SDS011;2965;42.640;23.370;2023-03-01T05:15:28;5.10;;;4.70;;
5878;SDS011;2965;42.640;23.370;2023-03-01T05:17:55;6.80;;;5.50;;
5878;SDS011;2965;42.640;23.370;2023-03-01T05:20:24;4.40;;;4.20;;
5878;SDS011;2965;42.640;23.370;2023-03-01T05:22:50;5.50;;;5.10;;
5878;SDS011;2965;42.640;23.370;2023-03-01T05:25:17;5.17;;;4.80;;
5878;SDS011;2965;42.640;23.370;2023-03-01T05:27:43;4.13;;;4.00;;
5878;SDS011;2965;42.640;23.370;2023-03-01T05:30:10;4.10;;;3.90;;
5878;SDS011;2965;42.640;23.370;2023-03-01T05:32:40;3.83;;;3.30;;
5878;SDS011;2965;42.640;23.370;2023-03-01T05:35:06;3.70;;;3.50;;
5878;SDS011;2965;42.640;23.370;2023-03-01T05:37:31;4.67;;;4.27;;
5878;SDS011;2965;42.640;23.370;2023-03-01T05:39:57;3.17;;;3.03;;
5878;SDS011;2965;42.640;23.370;2023-03-01T05:42:23;2.90;;;2.80;;
5878;SDS011;2965;42.640;23.370;2023-03-01T05:44:48;2.87;;;2.67;;
5878;SDS011;2965;42.640;23.370;2023-03-01T05:47:13;4.13;;;3.87;;
5878;SDS011;2965;42.640;23.370;2023-03-01T05:49:39;4.47;;;4.27;;
5878;SDS011;2965;42.640;23.370;2023-03-01T05:52:04;3.47;;;3.27;;
5878;SDS011;2965;42.640;23.370;2023-03-01T05:54:29;3.77;;;3.57;;
5878;SDS011;2965;42.640;23.370;2023-03-01T05:56:55;4.00;;;3.80;;
5878;SDS011;2965;42.640;23.370;2023-03-01T05:59:21;3.60;;;3.30;;
5878;SDS011;2965;42.640;23.370;2023-03-01T06:01:46;3.80;;;3.70;;
5878;SDS011;2965;42.640;23.370;2023-03-01T06:04:11;4.20;;;3.90;;
5878;SDS011;2965;42.640;23.370;2023-03-01T06:06:37;4.03;;;3.83;;
5878;SDS011;2965;42.640;23.370;2023-03-01T06:09:03;3.50;;;3.30;;
5878;SDS011;2965;42.640;23.370;2023-03-01T06:11:33;3.27;;;3.17;;
5878;SDS011;2965;42.640;23.370;2023-03-01T06:13:59;7.00;;;3.20;;
5878;SDS011;2965;42.640;23.370;2023-03-01T06:16:25;3.50;;;3.30;;
5878;SDS011;2965;42.640;23.370;2023-03-01T06:18:50;2.33;;;2.23;;
5878;SDS011;2965;42.640;23.370;2023-03-01T06:21:16;3.20;;;3.00;;
5878;SDS011;2965;42.640;23.370;2023-03-01T06:23:41;2.97;;;2.70;;
5878;SDS011;2965;42.640;23.370;2023-03-01T06:26:07;2.43;;;2.33;;
5878;SDS011;2965;42.640;23.370;2023-03-01T06:28:33;2.43;;;2.07;;
5878;SDS011;2965;42.640;23.370;2023-03-01T06:30:59;2.40;;;2.30;;
5878;SDS011;2965;42.640;23.370;2023-03-01T06:33:25;2.87;;;2.63;;
5878;SDS011;2965;42.640;23.370;2023-03-01T06:35:51;2.07;;;1.97;;
5878;SDS011;2965;42.640;23.370;2023-03-01T06:38:18;1.90;;;1.80;;
5878;SDS011;2965;42.640;23.370;2023-03-01T06:40:44;4.60;;;2.33;;
5878;SDS011;2965;42.640;23.370;2023-03-01T06:43:16;2.50;;;2.40;;
5878;SDS011;2965;42.640;23.370;2023-03-01T06:45:41;2.87;;;2.67;;
5878;SDS011;2965;42.640;23.370;2023-03-01T06:48:07;3.27;;;3.07;;
5878;SDS011;2965;42.640;23.370;2023-03-01T06:50:35;3.70;;;3.50;;
5878;SDS011;2965;42.640;23.370;2023-03-01T06:53:01;3.37;;;3.27;;
5878;SDS011;2965;42.640;23.370;2023-03-01T06:55:27;4.03;;;3.80;;
5878;SDS011;2965;42.640;23.370;2023-03-01T06:57:56;3.80;;;3.50;;
5878;SDS011;2965;42.640;23.370;2023-03-01T07:00:25;3.80;;;3.60;;
5878;SDS011;2965;42.640;23.370;2023-03-01T07:02:51;3.73;;;3.53;;
5878;SDS011;2965;42.640;23.370;2023-03-01T07:05:17;4.23;;;3.83;;
5878;SDS011;2965;42.640;23.370;2023-03-01T07:07:42;4.83;;;4.37;;
5878;SDS011;2965;42.640;23.370;2023-03-01T07:10:08;4.87;;;3.70;;
5878;SDS011;2965;42.640;23.370;2023-03-01T07:12:34;3.43;;;3.23;;
5878;SDS011;2965;42.640;23.370;2023-03-01T07:15:00;4.07;;;3.87;;
5878;SDS011;2965;42.640;23.370;2023-03-01T07:17:25;4.60;;;3.53;;
5878;SDS011;2965;42.640;23.370;2023-03-01T07:19:50;4.13;;;3.93;;
5878;SDS011;2965;42.640;23.370;2023-03-01T07:22:16;3.53;;;3.33;;
5878;SDS011;2965;42.640;23.370;2023-03-01T07:24:41;2.90;;;2.80;;
5878;SDS011;2965;42.640;23.370;2023-03-01T07:27:07;4.33;;;3.67;;
5878;SDS011;2965;42.640;23.370;2023-03-01T07:29:32;5.80;;;5.50;;
5878;SDS011;2965;42.640;23.370;2023-03-01T07:31:58;5.93;;;5.43;;
5878;SDS011;2965;42.640;23.370;2023-03-01T07:34:24;5.50;;;3.43;;
5878;SDS011;2965;42.640;23.370;2023-03-01T07:36:49;3.10;;;2.90;;
5878;SDS011;2965;42.640;23.370;2023-03-01T07:39:15;5.07;;;3.53;;
5878;SDS011;2965;42.640;23.370;2023-03-01T07:41:40;2.93;;;2.83;;
5878;SDS011;2965;42.640;23.370;2023-03-01T07:44:05;3.57;;;3.37;;
5878;SDS011;2965;42.640;23.370;2023-03-01T07:46:31;3.60;;;3.40;;
5878;SDS011;2965;42.640;23.370;2023-03-01T07:48:57;3.40;;;3.20;;
5878;SDS011;2965;42.640;23.370;2023-03-01T07:51:23;6.13;;;3.43;;
5878;SDS011;2965;42.640;23.370;2023-03-01T07:53:48;2.90;;;2.80;;
5878;SDS011;2965;42.640;23.370;2023-03-01T07:56:14;3.50;;;3.30;;
5878;SDS011;2965;42.640;23.370;2023-03-01T07:58:42;4.87;;;4.37;;
5878;SDS011;2965;42.640;23.370;2023-03-01T08:01:12;3.53;;;3.33;;
5878;SDS011;2965;42.640;23.370;2023-03-01T08:03:39;5.43;;;2.60;;
5878;SDS011;2965;42.640;23.370;2023-03-01T08:06:05;3.73;;;3.47;;
5878;SDS011;2965;42.640;23.370;2023-03-01T08:08:32;2.90;;;2.60;;
5878;SDS011;2965;42.640;23.370;2023-03-01T08:10:58;2.30;;;2.20;;
5878;SDS011;2965;42.640;23.370;2023-03-01T08:13:25;4.40;;;2.67;;
5878;SDS011;2965;42.640;23.370;2023-03-01T08:15:51;2.00;;;1.90;;
5878;SDS011;2965;42.640;23.370;2023-03-01T08:18:17;2.40;;;2.30;;
5878;SDS011;2965;42.640;23.370;2023-03-01T08:20:44;2.80;;;2.70;;
5878;SDS011;2965;42.640;23.370;2023-03-01T08:23:09;5.50;;;3.07;;
5878;SDS011;2965;42.640;23.370;2023-03-01T08:25:35;9.00;;;2.70;;
5878;SDS011;2965;42.640;23.370;2023-03-01T08:30:30;3.23;;;3.03;;
5878;SDS011;2965;42.640;23.370;2023-03-01T08:32:56;6.63;;;3.20;;
5878;SDS011;2965;42.640;23.370;2023-03-01T08:35:21;2.93;;;2.83;;
5878;SDS011;2965;42.640;23.370;2023-03-01T08:37:47;3.10;;;3.00;;
5878;SDS011;2965;42.640;23.370;2023-03-01T08:40:13;3.70;;;3.60;;
5878;SDS011;2965;42.640;23.370;2023-03-01T08:42:39;3.70;;;3.50;;
5878;SDS011;2965;42.640;23.370;2023-03-01T08:45:06;3.10;;;2.90;;
5878;SDS011;2965;42.640;23.370;2023-03-01T08:47:32;3.37;;;3.27;;
5878;SDS011;2965;42.640;23.370;2023-03-01T08:49:58;3.27;;;2.97;;
5878;SDS011;2965;42.640;23.370;2023-03-01T08:52:24;2.60;;;2.50;;
5878;SDS011;2965;42.640;23.370;2023-03-01T08:54:50;7.93;;;3.50;;
5878;SDS011;2965;42.640;23.370;2023-03-01T08:59:46;2.93;;;2.83;;
5878;SDS011;2965;42.640;23.370;2023-03-01T09:02:13;5.40;;;3.20;;
5878;SDS011;2965;42.640;23.370;2023-03-01T09:04:42;4.07;;;3.87;;
5878;SDS011;2965;42.640;23.370;2023-03-01T09:07:09;2.70;;;2.33;;
5878;SDS011;2965;42.640;23.370;2023-03-01T09:09:35;2.80;;;2.70;;
5878;SDS011;2965;42.640;23.370;2023-03-01T09:12:01;5.93;;;2.70;;
5878;SDS011;2965;42.640;23.370;2023-03-01T09:14:27;2.70;;;2.60;;
5878;SDS011;2965;42.640;23.370;2023-03-01T09:19:22;6.87;;;3.50;;
5878;SDS011;2965;42.640;23.370;2023-03-01T09:21:48;3.20;;;3.00;;
5878;SDS011;2965;42.640;23.370;2023-03-01T09:24:21;6.20;;;3.00;;
5878;SDS011;2965;42.640;23.370;2023-03-01T09:26:48;3.20;;;3.00;;
5878;SDS011;2965;42.640;23.370;2023-03-01T09:29:14;5.13;;;3.10;;
5878;SDS011;2965;42.640;23.370;2023-03-01T09:31:41;2.60;;;2.50;;
5878;SDS011;2965;42.640;23.370;2023-03-01T09:34:07;2.77;;;2.67;;
5878;SDS011;2965;42.640;23.370;2023-03-01T09:36:33;5.77;;;3.30;;
5878;SDS011;2965;42.640;23.370;2023-03-01T09:38:59;2.70;;;2.60;;
5878;SDS011;2965;42.640;23.370;2023-03-01T09:44:44;3.20;;;3.00;;
5878;SDS011;2965;42.640;23.370;2023-03-01T09:47:22;3.40;;;3.20;;
5878;SDS011;2965;42.640;23.370;2023-03-01T09:50:24;4.70;;;3.30;;
5878;SDS011;2965;42.640;23.370;2023-03-01T09:55:26;2.83;;;2.63;;
5878;SDS011;2965;42.640;23.370;2023-03-01T09:58:00;3.10;;;2.97;;
5878;SDS011;2965;42.640;23.370;2023-03-01T10:00:47;2.80;;;2.70;;
5878;SDS011;2965;42.640;23.370;2023-03-01T10:11:19;4.23;;;3.53;;
5878;SDS011;2965;42.640;23.370;2023-03-01T10:14:01;3.80;;;3.50;;
5878;SDS011;2965;42.640;23.370;2023-03-01T10:19:13;4.10;;;3.80;;
5878;SDS011;2965;42.640;23.370;2023-03-01T10:21:45;4.07;;;3.83;;
5878;SDS011;2965;42.640;23.370;2023-03-01T10:24:15;4.87;;;4.50;;
5878;SDS011;2965;42.640;23.370;2023-03-01T10:29:34;3.60;;;3.40;;
5878;SDS011;2965;42.640;23.370;2023-03-01T10:32:08;4.20;;;4.00;;
5878;SDS011;2965;42.640;23.370;2023-03-01T10:34:35;4.23;;;4.03;;
5878;SDS011;2965;42.640;23.370;2023-03-01T10:37:08;4.10;;;3.73;;
5878;SDS011;2965;42.640;23.370;2023-03-01T10:42:30;4.37;;;3.97;;
5878;SDS011;2965;42.640;23.370;2023-03-01T10:44:58;4.57;;;3.20;;
5878;SDS011;2965;42.640;23.370;2023-03-01T10:47:41;2.37;;;2.27;;
5878;SDS011;2965;42.640;23.370;2023-03-01T10:50:18;2.20;;;2.10;;
5878;SDS011;2965;42.640;23.370;2023-03-01T10:52:55;2.63;;;2.53;;
5878;SDS011;2965;42.640;23.370;2023-03-01T10:58:06;2.23;;;2.13;;
5878;SDS011;2965;42.640;23.370;2023-03-01T11:03:37;6.30;;;3.50;;
5878;SDS011;2965;42.640;23.370;2023-03-01T11:06:05;3.73;;;3.43;;
5878;SDS011;2965;42.640;23.370;2023-03-01T11:08:51;4.63;;;4.23;;
5878;SDS011;2965;42.640;23.370;2023-03-01T11:11:34;3.10;;;2.90;;
5878;SDS011;2965;42.640;23.370;2023-03-01T11:14:02;2.80;;;2.70;;
5878;SDS011;2965;42.640;23.370;2023-03-01T11:16:36;4.30;;;3.20;;
5878;SDS011;2965;42.640;23.370;2023-03-01T11:21:34;3.30;;;3.13;;
5878;SDS011;2965;42.640;23.370;2023-03-01T11:24:05;3.97;;;3.67;;
5878;SDS011;2965;42.640;23.370;2023-03-01T11:26:36;5.60;;;3.90;;
5878;SDS011;2965;42.640;23.370;2023-03-01T11:29:06;4.70;;;3.97;;
5878;SDS011;2965;42.640;23.370;2023-03-01T11:31:41;4.40;;;4.10;;
5878;SDS011;2965;42.640;23.370;2023-03-01T11:34:11;4.90;;;4.57;;
5878;SDS011;2965;42.640;23.370;2023-03-01T11:36:48;4.50;;;4.27;;
5878;SDS011;2965;42.640;23.370;2023-03-01T11:39:33;4.20;;;3.93;;
5878;SDS011;2965;42.640;23.370;2023-03-01T11:42:20;3.77;;;3.57;;
5878;SDS011;2965;42.640;23.370;2023-03-01T11:44:56;5.67;;;4.20;;
5878;SDS011;2965;42.640;23.370;2023-03-01T11:53:32;4.10;;;3.80;;
5878;SDS011;2965;42.640;23.370;2023-03-01T11:56:27;4.10;;;3.90;;
5878;SDS011;2965;42.640;23.370;2023-03-01T12:07:25;4.23;;;3.80;;
5878;SDS011;2965;42.640;23.370;2023-03-01T12:10:10;5.10;;;4.80;;
5878;SDS011;2965;42.640;23.370;2023-03-01T12:13:01;3.90;;;3.70;;
5878;SDS011;2965;42.640;23.370;2023-03-01T12:26:42;5.30;;;5.00;;
5878;SDS011;2965;42.640;23.370;2023-03-01T12:31:51;4.47;;;4.27;;
5878;SDS011;2965;42.640;23.370;2023-03-01T12:46:20;4.33;;;4.13;;
5878;SDS011;2965;42.640;23.370;2023-03-01T12:49:13;4.00;;;3.70;;
5878;SDS011;2965;42.640;23.370;2023-03-01T12:54:45;4.87;;;4.50;;
5878;SDS011;2965;42.640;23.370;2023-03-01T12:57:17;4.87;;;4.57;;
5878;SDS011;2965;42.640;23.370;2023-03-01T13:02:29;5.17;;;4.87;;
5878;SDS011;2965;42.640;23.370;2023-03-01T13:10:54;5.07;;;4.20;;
5878;SDS011;2965;42.640;23.370;2023-03-01T13:13:27;4.70;;;4.30;;
5878;SDS011;2965;42.640;23.370;2023-03-01T13:15:54;3.30;;;3.10;;
5878;SDS011;2965;42.640;23.370;2023-03-01T13:20:50;10.50;;;4.57;;
5878;SDS011;2965;42.640;23.370;2023-03-01T13:33:44;3.93;;;3.73;;
5878;SDS011;2965;42.640;23.370;2023-03-01T13:36:45;4.10;;;3.90;;
5878;SDS011;2965;42.640;23.370;2023-03-01T13:42:25;4.30;;;4.03;;
5878;SDS011;2965;42.640;23.370;2023-03-01T13:44:56;4.00;;;3.80;;
5878;SDS011;2965;42.640;23.370;2023-03-01T13:47:22;4.10;;;3.90;;
5878;SDS011;2965;42.640;23.370;2023-03-01T13:49:49;5.77;;;4.10;;
5878;SDS011;2965;42.640;23.370;2023-03-01T13:52:35;5.53;;;5.03;;
5878;SDS011;2965;42.640;23.370;2023-03-01T13:57:38;4.27;;;3.97;;
5878;SDS011;2965;42.640;23.370;2023-03-01T14:00:04;4.77;;;4.57;;
5878;SDS011;2965;42.640;23.370;2023-03-01T14:02:30;4.17;;;3.97;;
5878;SDS011;2965;42.640;23.370;2023-03-01T14:04:59;6.07;;;4.27;;
5878;SDS011;2965;42.640;23.370;2023-03-01T14:07:26;3.80;;;3.60;;
5878;SDS011;2965;42.640;23.370;2023-03-01T14:10:00;3.57;;;3.43;;
5878;SDS011;2965;42.640;23.370;2023-03-01T14:15:19;5.00;;;4.00;;
5878;SDS011;2965;42.640;23.370;2023-03-01T14:17:53;4.57;;;3.93;;
5878;SDS011;2965;42.640;23.370;2023-03-01T14:20:21;3.97;;;3.77;;
5878;SDS011;2965;42.640;23.370;2023-03-01T14:22:50;5.13;;;4.30;;
5878;SDS011;2965;42.640;23.370;2023-03-01T14:25:26;4.10;;;3.70;;
5878;SDS011;2965;42.640;23.370;2023-03-01T14:28:14;3.67;;;3.50;;
5878;SDS011;2965;42.640;23.370;2023-03-01T14:30:44;4.43;;;4.13;;
5878;SDS011;2965;42.640;23.370;2023-03-01T14:38:22;7.33;;;3.70;;
5878;SDS011;2965;42.640;23.370;2023-03-01T14:40:54;5.27;;;3.37;;
5878;SDS011;2965;42.640;23.370;2023-03-01T14:43:23;4.73;;;4.23;;
5878;SDS011;2965;42.640;23.370;2023-03-01T14:45:51;3.80;;;3.60;;
5878;SDS011;2965;42.640;23.370;2023-03-01T14:48:17;3.87;;;3.67;;
5878;SDS011;2965;42.640;23.370;2023-03-01T14:50:43;6.13;;;4.20;;
5878;SDS011;2965;42.640;23.370;2023-03-01T14:53:15;4.23;;;4.00;;
5878;SDS011;2965;42.640;23.370;2023-03-01T14:55:47;3.67;;;3.43;;
5878;SDS011;2965;42.640;23.370;2023-03-01T14:58:18;3.90;;;3.30;;
5878;SDS011;2965;42.640;23.370;2023-03-01T15:00:55;4.10;;;3.90;;
5878;SDS011;2965;42.640;23.370;2023-03-01T15:05:55;3.40;;;3.30;;
5878;SDS011;2965;42.640;23.370;2023-03-01T15:08:23;3.93;;;3.73;;
5878;SDS011;2965;42.640;23.370;2023-03-01T15:13:29;4.60;;;4.30;;
5878;SDS011;2965;42.640;23.370;2023-03-01T15:16:03;4.50;;;4.20;;
5878;SDS011;2965;42.640;23.370;2023-03-01T15:18:47;5.17;;;4.87;;
5878;SDS011;2965;42.640;23.370;2023-03-01T15:21:19;6.53;;;4.50;;
5878;SDS011;2965;42.640;23.370;2023-03-01T15:23:53;8.53;;;4.40;;
5878;SDS011;2965;42.640;23.370;2023-03-01T15:26:42;5.13;;;4.53;;
5878;SDS011;2965;42.640;23.370;2023-03-01T15:29:13;5.47;;;4.27;;
5878;SDS011;2965;42.640;23.370;2023-03-01T15:31:43;4.90;;;4.50;;
5878;SDS011;2965;42.640;23.370;2023-03-01T15:34:23;4.53;;;4.20;;
5878;SDS011;2965;42.640;23.370;2023-03-01T15:37:00;3.13;;;3.03;;
5878;SDS011;2965;42.640;23.370;2023-03-01T15:39:30;5.93;;;4.30;;
5878;SDS011;2965;42.640;23.370;2023-03-01T15:45:06;5.63;;;4.87;;
5878;SDS011;2965;42.640;23.370;2023-03-01T15:47:58;7.90;;;4.33;;
5878;SDS011;2965;42.640;23.370;2023-03-01T15:50:31;4.40;;;4.17;;
5878;SDS011;2965;42.640;23.370;2023-03-01T15:52:58;6.00;;;4.10;;
5878;SDS011;2965;42.640;23.370;2023-03-01T15:55:28;5.77;;;4.53;;
5878;SDS011;2965;42.640;23.370;2023-03-01T15:58:12;5.00;;;4.57;;
5878;SDS011;2965;42.640;23.370;2023-03-01T16:00:40;4.07;;;3.77;;
5878;SDS011;2965;42.640;23.370;2023-03-01T16:03:07;5.00;;;4.60;;
5878;SDS011;2965;42.640;23.370;2023-03-01T16:05:36;5.50;;;4.83;;
5878;SDS011;2965;42.640;23.370;2023-03-01T16:08:03;9.10;;;4.97;;
5878;SDS011;2965;42.640;23.370;2023-03-01T16:10:31;7.10;;;3.80;;
5878;SDS011;2965;42.640;23.370;2023-03-01T16:12:57;3.93;;;3.73;;
5878;SDS011;2965;42.640;23.370;2023-03-01T16:15:28;4.40;;;4.20;;
5878;SDS011;2965;42.640;23.370;2023-03-01T17:18:02;4.13;;;3.83;;
5878;SDS011;2965;42.640;23.370;2023-03-01T17:20:27;4.37;;;4.07;;
5878;SDS011;2965;42.640;23.370;2023-03-01T17:22:53;4.10;;;3.80;;
5878;SDS011;2965;42.640;23.370;2023-03-01T17:25:18;8.47;;;4.20;;
5878;SDS011;2965;42.640;23.370;2023-03-01T17:27:44;14.63;;;4.23;;
5878;SDS011;2965;42.640;23.370;2023-03-01T17:30:10;7.43;;;4.73;;
5878;SDS011;2965;42.640;23.370;2023-03-01T17:32:37;5.40;;;4.60;;
5878;SDS011;2965;42.640;23.370;2023-03-01T17:35:03;5.13;;;4.80;;
5878;SDS011;2965;42.640;23.370;2023-03-01T17:37:28;7.43;;;5.50;;
5878;SDS011;2965;42.640;23.370;2023-03-01T17:39:54;5.53;;;5.00;;
5878;SDS011;2965;42.640;23.370;2023-03-01T17:42:19;4.80;;;4.40;;
5878;SDS011;2965;42.640;23.370;2023-03-01T17:44:44;13.73;;;5.43;;
5878;SDS011;2965;42.640;23.370;2023-03-01T17:47:10;8.80;;;6.30;;
5878;SDS011;2965;42.640;23.370;2023-03-01T17:49:35;7.10;;;6.40;;
5878;SDS011;2965;42.640;23.370;2023-03-01T17:52:01;7.37;;;6.67;;
5878;SDS011;2965;42.640;23.370;2023-03-01T17:54:26;13.33;;;8.27;;
5878;SDS011;2965;42.640;23.370;2023-03-01T17:56:52;10.13;;;7.37;;
5878;SDS011;2965;42.640;23.370;2023-03-01T17:59:17;12.93;;;8.40;;
5878;SDS011;2965;42.640;23.370;2023-03-01T18:01:43;14.70;;;9.60;;
5878;SDS011;2965;42.640;23.370;2023-03-01T18:04:08;17.70;;;8.50;;
5878;SDS011;2965;42.640;23.370;2023-03-01T18:06:35;9.20;;;7.67;;
5878;SDS011;2965;42.640;23.370;2023-03-01T18:09:01;10.30;;;7.70;;
5878;SDS011;2965;42.640;23.370;2023-03-01T18:11:27;12.87;;;7.67;;
5878;SDS011;2965;42.640;23.370;2023-03-01T18:13:53;14.30;;;7.80;;
5878;SDS011;2965;42.640;23.370;2023-03-01T18:16:20;12.57;;;8.00;;
5878;SDS011;2965;42.640;23.370;2023-03-01T18:18:46;24.70;;;8.23;;
5878;SDS011;2965;42.640;23.370;2023-03-01T18:21:12;11.67;;;8.23;;
5878;SDS011;2965;42.640;23.370;2023-03-01T18:23:39;14.97;;;7.90;;
5878;SDS011;2965;42.640;23.370;2023-03-01T18:26:09;11.90;;;8.47;;
5878;SDS011;2965;42.640;23.370;2023-03-01T18:28:37;12.03;;;7.70;;
5878;SDS011;2965;42.640;23.370;2023-03-01T18:31:07;9.60;;;7.33;;
5878;SDS011;2965;42.640;23.370;2023-03-01T18:33:37;11.10;;;7.70;;
5878;SDS011;2965;42.640;23.370;2023-03-01T18:36:04;12.10;;;7.83;;
5878;SDS011;2965;42.640;23.370;2023-03-01T18:38:30;9.63;;;7.77;;
5878;SDS011;2965;42.640;23.370;2023-03-01T18:40:56;8.83;;;7.40;;
5878;SDS011;2965;42.640;23.370;2023-03-01T18:43:22;10.83;;;8.47;;
5878;SDS011;2965;42.640;23.370;2023-03-01T18:45:54;10.40;;;7.33;;
5878;SDS011;2965;42.640;23.370;2023-03-01T18:48:20;12.23;;;7.60;;
5878;SDS011;2965;42.640;23.370;2023-03-01T18:50:46;8.80;;;6.63;;
5878;SDS011;2965;42.640;23.370;2023-03-01T18:53:11;8.60;;;7.70;;
5878;SDS011;2965;42.640;23.370;2023-03-01T18:55:37;10.77;;;7.30;;
5878;SDS011;2965;42.640;23.370;2023-03-01T18:58:03;10.50;;;7.90;;
5878;SDS011;2965;42.640;23.370;2023-03-01T19:00:29;13.10;;;7.30;;
5878;SDS011;2965;42.640;23.370;2023-03-01T19:02:55;10.60;;;7.13;;
5878;SDS011;2965;42.640;23.370;2023-03-01T19:05:22;11.43;;;7.80;;
5878;SDS011;2965;42.640;23.370;2023-03-01T19:07:47;8.70;;;7.60;;
5878;SDS011;2965;42.640;23.370;2023-03-01T19:10:13;6.93;;;6.10;;
5878;SDS011;2965;42.640;23.370;2023-03-01T19:12:38;15.60;;;7.97;;
5878;SDS011;2965;42.640;23.370;2023-03-01T19:15:04;9.87;;;7.60;;
5878;SDS011;2965;42.640;23.370;2023-03-01T19:17:30;11.07;;;8.00;;
5878;SDS011;2965;42.640;23.370;2023-03-01T19:19:56;12.40;;;7.40;;
5878;SDS011;2965;42.640;23.370;2023-03-01T19:22:22;11.50;;;7.83;;
5878;SDS011;2965;42.640;23.370;2023-03-01T19:24:48;16.00;;;9.10;;
5878;SDS011;2965;42.640;23.370;2023-03-01T19:27:14;14.67;;;9.30;;
5878;SDS011;2965;42.640;23.370;2023-03-01T19:29:40;19.37;;;9.30;;
5878;SDS011;2965;42.640;23.370;2023-03-01T19:32:06;21.40;;;9.70;;
5878;SDS011;2965;42.640;23.370;2023-03-01T19:34:31;15.37;;;9.27;;
5878;SDS011;2965;42.640;23.370;2023-03-01T19:36:57;19.57;;;8.93;;
5878;SDS011;2965;42.640;23.370;2023-03-01T19:39:22;14.90;;;9.10;;
5878;SDS011;2965;42.640;23.370;2023-03-01T19:41:47;17.00;;;9.73;;
5878;SDS011;2965;42.640;23.370;2023-03-01T19:44:13;10.97;;;8.13;;
5878;SDS011;2965;42.640;23.370;2023-03-01T19:46:39;17.33;;;9.20;;
5878;SDS011;2965;42.640;23.370;2023-03-01T19:49:06;11.40;;;8.60;;
5878;SDS011;2965;42.640;23.370;2023-03-01T19:51:31;11.70;;;8.47;;
5878;SDS011;2965;42.640;23.370;2023-03-01T19:54:00;12.57;;;9.57;;
5878;SDS011;2965;42.640;23.370;2023-03-01T19:56:25;14.67;;;8.93;;
5878;SDS011;2965;42.640;23.370;2023-03-01T19:58:51;10.37;;;8.13;;
5878;SDS011;2965;42.640;23.370;2023-03-01T20:01:24;16.00;;;7.83;;
5878;SDS011;2965;42.640;23.370;2023-03-01T20:03:51;12.70;;;8.50;;
5878;SDS011;2965;42.640;23.370;2023-03-01T20:06:17;15.67;;;9.43;;
5878;SDS011;2965;42.640;23.370;2023-03-01T20:08:45;11.97;;;8.10;;
5878;SDS011;2965;42.640;23.370;2023-03-01T20:11:12;11.80;;;8.23;;
5878;SDS011;2965;42.640;23.370;2023-03-01T20:13:39;10.87;;;8.07;;
5878;SDS011;2965;42.640;23.370;2023-03-01T20:16:05;15.47;;;9.13;;
5878;SDS011;2965;42.640;23.370;2023-03-01T20:18:31;7.40;;;6.60;;
5878;SDS011;2965;42.640;23.370;2023-03-01T20:20:57;8.83;;;7.93;;
5878;SDS011;2965;42.640;23.370;2023-03-01T20:23:23;7.90;;;7.17;;
5878;SDS011;2965;42.640;23.370;2023-03-01T20:25:49;9.07;;;6.13;;
5878;SDS011;2965;42.640;23.370;2023-03-01T20:28:14;6.77;;;6.17;;
5878;SDS011;2965;42.640;23.370;2023-03-01T20:30:41;10.03;;;7.20;;
5878;SDS011;2965;42.640;23.370;2023-03-01T20:33:06;9.43;;;7.40;;
5878;SDS011;2965;42.640;23.370;2023-03-01T20:35:32;18.03;;;8.23;;
5878;SDS011;2965;42.640;23.370;2023-03-01T20:38:00;8.07;;;7.27;;
5878;SDS011;2965;42.640;23.370;2023-03-01T20:40:26;11.13;;;8.07;;
5878;SDS011;2965;42.640;23.370;2023-03-01T20:42:55;14.27;;;9.47;;
5878;SDS011;2965;42.640;23.370;2023-03-01T20:45:22;18.27;;;10.03;;
5878;SDS011;2965;42.640;23.370;2023-03-01T20:47:49;16.07;;;9.53;;
5878;SDS011;2965;42.640;23.370;2023-03-01T20:50:15;14.30;;;9.40;;
5878;SDS011;2965;42.640;23.370;2023-03-01T20:52:41;14.40;;;9.30;;
5878;SDS011;2965;42.640;23.370;2023-03-01T20:55:06;14.20;;;9.00;;
5878;SDS011;2965;42.640;23.370;2023-03-01T20:57:32;12.17;;;7.70;;
5878;SDS011;2965;42.640;23.370;2023-03-01T21:02:40;12.87;;;8.93;;
5878;SDS011;2965;42.640;23.370;2023-03-01T21:05:06;12.80;;;8.73;;
5878;SDS011;2965;42.640;23.370;2023-03-01T21:07:31;17.50;;;9.93;;
5878;SDS011;2965;42.640;23.370;2023-03-01T21:09:57;17.93;;;9.10;;
5878;SDS011;2965;42.640;23.370;2023-03-01T21:12:22;15.40;;;9.37;;
5878;SDS011;2965;42.640;23.370;2023-03-01T21:14:48;11.47;;;9.43;;
5878;SDS011;2965;42.640;23.370;2023-03-01T21:17:14;20.03;;;8.53;;
5878;SDS011;2965;42.640;23.370;2023-03-01T21:19:42;15.23;;;10.23;;
5878;SDS011;2965;42.640;23.370;2023-03-01T21:22:09;14.60;;;9.50;;
5878;SDS011;2965;42.640;23.370;2023-03-01T21:24:34;13.90;;;9.73;;
5878;SDS011;2965;42.640;23.370;2023-03-01T21:27:00;15.30;;;9.40;;
5878;SDS011;2965;42.640;23.370;2023-03-01T21:31:59;16.87;;;10.57;;
5878;SDS011;2965;42.640;23.370;2023-03-01T21:34:24;16.10;;;9.87;;
5878;SDS011;2965;42.640;23.370;2023-03-01T21:36:50;21.57;;;10.60;;
5878;SDS011;2965;42.640;23.370;2023-03-01T21:39:15;21.50;;;10.60;;
5878;SDS011;2965;42.640;23.370;2023-03-01T21:41:40;15.80;;;9.60;;
5878;SDS011;2965;42.640;23.370;2023-03-01T21:44:06;15.43;;;9.10;;
5878;SDS011;2965;42.640;23.370;2023-03-01T21:46:33;19.80;;;9.17;;
5878;SDS011;2965;42.640;23.370;2023-03-01T21:49:01;16.47;;;10.33;;
5878;SDS011;2965;42.640;23.370;2023-03-01T21:51:28;17.57;;;9.77;;
5878;SDS011;2965;42.640;23.370;2023-03-01T21:53:55;20.20;;;9.90;;
5878;SDS011;2965;42.640;23.370;2023-03-01T21:56:22;15.00;;;9.60;;
5878;SDS011;2965;42.640;23.370;2023-03-01T21:58:49;16.07;;;9.67;;
